Virtual United States Air Force

 METAR AND TAF INFORMATION
METAR FOR KS52
ADDS - METARS form results

(1427 UTC 25 October 2020)
Data provider http://aviationweather.gov/metar/data/
 
METAR text: KS52 251415Z AUTO 00000KT 10SM CLR M10/M12 A3064 RMK AO2 T11011123
Conditions at: KS52 (METHOW VALLEY , WA, US) observed 1415 UTC 25 October 2020
Temperature: -10.1°C (14°F)
Dewpoint: -12.3°C (10°F) [RH = 84%]
Pressure (altimeter): 30.64 inches Hg (1037.7 mb)
Winds: calm
Visibility: 10 or more miles (16+ km)
Ceiling: at least 12,000 feet AGL
Clouds: sky clear below 12,000 feet AGL
Weather: automated observation with no human augmentation;
there may or may not be significant weather present at this time

METAR text: KS52 251355Z AUTO 00000KT 10SM CLR M10/M12 A3063 RMK AO2 T10991120
Conditions at: KS52 (METHOW VALLEY , WA, US) observed 1355 UTC 25 October 2020
Temperature: -9.9°C (14°F)
Dewpoint: -12.0°C (10°F) [RH = 85%]
Pressure (altimeter): 30.63 inches Hg (1037.3 mb)
Winds: calm
Visibility: 10 or more miles (16+ km)
Ceiling: at least 12,000 feet AGL
Clouds: sky clear below 12,000 feet AGL
Weather: automated observation with no human augmentation;
there may or may not be significant weather present at this time

METAR text: KS52 251335Z AUTO 00000KT 10SM CLR M09/M11 A3063 RMK AO2 T10941114
Conditions at: KS52 (METHOW VALLEY , WA, US) observed 1335 UTC 25 October 2020
Temperature: -9.4°C (15°F)
Dewpoint: -11.4°C (11°F) [RH = 85%]
Pressure (altimeter): 30.63 inches Hg (1037.3 mb)
Winds: calm
Visibility: 10 or more miles (16+ km)
Ceiling: at least 12,000 feet AGL
Clouds: sky clear below 12,000 feet AGL
Weather: automated observation with no human augmentation;
there may or may not be significant weather present at this time

 AIRPORT MAP

 RUNWAY INFORMATION
Runway 13 Runway length 5048 ft Runway width 75 ft
Runway elevation 1694 ft Runway displaced threshold 134 ft Runway heading 147
Runway 31 Runway length 5048 ft Runway width 75 ft
Runway elevation 0 ft Runway displaced threshold 231 ft Runway heading 327

 AIRPORT FREQUENCIES
Type AWOS Name AWOS Frequency 118.425 MHZ
Type UNIC Name CTAF/UNICO Frequency 122.8 MHZ

 AIRPORT NEAR NAVIGATION AIDS


Neither the Department of the Air Force, nor any other component of the Department of Defense or Federal Government has approved, endorsed, or authorized this promotion, activity, or organization. Virtual United States Air Force organization is in no way affiliated with the Department of Defense, Department of the Air Force, or any other federal or government entity. Virtual United States Air Force is a group of flight simulation enthusiasts with the common interest of promoting enjoyment and cameraderie through the simulation of military operations and procedures utilizing several flight simulation platforms.

Copyright © vUSAF, LLC // 2018-2020 All Rights Reserved